Time;durP1;ratioP1;P1;durP2;ratioP2;P2;SDS_P1;SDS_P2;PMS_P1;PMS_P2;Temp;Humidity;BMP_temperature;BMP_pressure;BME280_temperature;BME280_humidity;BME280_pressure;Samples;Min_cycle;Max_cycle;Signal;HPM_P1;HPM_P2
2023/11/18 00:00:12;;;;;;;24.70;12.83;;;4.00;99.90;;;;;;5070899;28;20677;-68
2023/11/18 00:02:38;;;;;;;25.43;13.10;;;4.00;99.90;;;;;;5087976;28;20174;-68
2023/11/18 00:05:04;;;;;;;23.30;14.53;;;4.00;99.90;;;;;;5092486;28;20460;-68
2023/11/18 00:07:32;;;;;;;21.13;12.83;;;4.00;99.90;;;;;;5092434;28;20459;-68
2023/11/18 00:09:57;;;;;;;20.67;11.57;;;4.00;99.90;;;;;;5088428;28;20436;-68
2023/11/18 00:12:24;;;;;;;18.80;11.57;;;4.00;99.90;;;;;;5054237;28;20477;-68
2023/11/18 00:14:49;;;;;;;27.33;14.33;;;4.10;99.90;;;;;;5072072;28;20167;-68
2023/11/18 00:17:15;;;;;;;20.53;13.17;;;4.20;99.90;;;;;;5072109;28;20450;-68
2023/11/18 00:19:42;;;;;;;30.73;12.67;;;4.20;99.90;;;;;;5071942;28;20186;-68
2023/11/18 00:22:08;;;;;;;21.43;13.47;;;4.10;99.90;;;;;;5072040;28;20393;-68
2023/11/18 00:24:36;;;;;;;25.70;13.50;;;4.10;99.90;;;;;;5071936;28;20403;-68
2023/11/18 00:27:06;;;;;;;24.47;12.83;;;4.20;99.90;;;;;;5072043;28;20176;-68
2023/11/18 00:29:35;;;;;;;27.33;14.20;;;4.30;99.90;;;;;;5071831;28;20451;-68
2023/11/18 00:32:02;;;;;;;26.30;14.40;;;4.40;99.90;;;;;;5071582;28;20396;-68
2023/11/18 00:34:29;;;;;;;24.67;13.53;;;4.30;99.90;;;;;;5071646;28;20393;-68
2023/11/18 00:36:57;;;;;;;21.73;12.20;;;4.30;99.90;;;;;;5071881;28;20949;-68
2023/11/18 00:39:23;;;;;;;25.17;13.23;;;4.40;99.90;;;;;;5071787;28;20416;-68
2023/11/18 00:41:48;;;;;;;21.97;13.33;;;4.40;99.90;;;;;;5071882;28;20450;-68
2023/11/18 00:44:14;;;;;;;24.93;12.47;;;4.50;99.90;;;;;;5071583;28;20166;-68
2023/11/18 00:46:39;;;;;;;22.37;11.20;;;4.40;99.90;;;;;;5071849;28;20663;-68
2023/11/18 00:49:05;;;;;;;23.33;12.67;;;4.40;99.90;;;;;;5053736;28;20206;-68
2023/11/18 00:51:31;;;;;;;33.13;13.93;;;4.50;99.90;;;;;;5071765;28;20224;-68
2023/11/18 00:53:57;;;;;;;24.07;11.93;;;4.40;99.90;;;;;;5071618;28;20188;-68
2023/11/18 00:56:22;;;;;;;29.57;14.10;;;4.50;99.90;;;;;;5071506;28;20405;-68
2023/11/18 00:58:49;;;;;;;39.27;15.00;;;4.50;99.90;;;;;;5071554;28;20181;-69
2023/11/18 01:01:17;;;;;;;26.47;13.37;;;4.50;99.90;;;;;;5071684;28;20172;-68
2023/11/18 01:03:44;;;;;;;21.87;12.17;;;4.60;99.90;;;;;;5071551;28;20766;-68
2023/11/18 01:06:09;;;;;;;27.37;13.80;;;4.50;99.90;;;;;;5071389;28;20405;-68
2023/11/18 01:08:35;;;;;;;21.67;12.87;;;4.60;99.90;;;;;;5071573;28;21036;-68
2023/11/18 01:11:00;;;;;;;28.07;14.00;;;4.70;99.90;;;;;;5071580;28;20517;-68
2023/11/18 01:13:26;;;;;;;27.77;12.20;;;4.70;99.90;;;;;;5074497;28;20173;-68
2023/11/18 01:15:52;;;;;;;29.90;12.80;;;4.70;99.90;;;;;;5075333;28;20625;-68
2023/11/18 01:18:17;;;;;;;20.33;11.80;;;4.70;99.90;;;;;;5075357;28;20560;-68
2023/11/18 01:20:43;;;;;;;28.33;14.20;;;4.60;99.90;;;;;;5075348;28;20162;-68
2023/11/18 01:23:09;;;;;;;31.60;12.00;;;4.70;99.90;;;;;;5075073;28;20285;-68
2023/11/18 01:25:34;;;;;;;27.33;14.33;;;4.60;99.90;;;;;;5074541;28;20659;-68
2023/11/18 01:28:00;;;;;;;25.57;12.60;;;4.70;99.90;;;;;;5074808;28;20277;-68
2023/11/18 01:30:26;;;;;;;28.40;14.00;;;4.70;99.90;;;;;;5074128;28;20587;-68
2023/11/18 01:32:52;;;;;;;38.30;14.30;;;4.80;99.90;;;;;;5074959;28;20154;-68
2023/11/18 01:35:19;;;;;;;30.10;13.10;;;4.80;99.90;;;;;;5074851;28;20396;-68
2023/11/18 01:37:45;;;;;;;30.13;13.30;;;4.80;99.90;;;;;;5075099;28;20577;-68
2023/11/18 01:40:15;;;;;;;29.30;13.00;;;4.80;99.90;;;;;;5074804;28;20428;-68
2023/11/18 01:42:46;;;;;;;26.73;12.63;;;4.80;99.90;;;;;;5074978;28;20162;-68
2023/11/18 01:45:16;;;;;;;24.80;12.40;;;4.90;99.90;;;;;;5074644;28;20411;-68
2023/11/18 01:47:42;;;;;;;30.00;15.00;;;4.90;99.90;;;;;;5074794;28;20440;-68
2023/11/18 01:50:11;;;;;;;30.20;15.30;;;4.90;99.90;;;;;;5074692;28;20424;-68
2023/11/18 01:52:37;;;;;;;37.07;13.30;;;5.00;99.90;;;;;;5074749;28;20512;-68
2023/11/18 01:55:06;;;;;;;44.17;15.53;;;5.00;99.90;;;;;;5074653;28;20462;-68
2023/11/18 01:57:33;;;;;;;40.70;14.37;;;5.00;99.90;;;;;;5074561;28;20432;-68
2023/11/18 01:59:59;;;;;;;39.80;16.93;;;5.00;99.90;;;;;;5074542;28;20424;-68
2023/11/18 02:02:25;;;;;;;66.50;16.97;;;5.00;99.90;;;;;;5074528;28;20487;-68
2023/11/18 02:04:52;;;;;;;35.80;15.00;;;4.90;99.90;;;;;;5074402;28;20173;-68
2023/11/18 02:07:18;;;;;;;43.20;16.80;;;5.00;99.90;;;;;;5074463;28;20400;-68
2023/11/18 02:09:45;;;;;;;40.33;16.17;;;5.10;99.90;;;;;;5074337;28;20482;-68
2023/11/18 02:12:34;;;;;;;39.47;16.60;;;5.10;99.90;;;;;;5074432;28;20165;-68
2023/11/18 02:15:02;;;;;;;53.97;17.13;;;5.10;99.90;;;;;;5074290;28;20907;-68
2023/11/18 02:17:29;;;;;;;37.90;16.07;;;5.20;99.90;;;;;;5074248;28;20442;-68
2023/11/18 02:19:57;;;;;;;48.27;18.77;;;5.20;99.90;;;;;;5074388;28;20951;-68
2023/11/18 02:22:23;;;;;;;52.03;17.90;;;5.20;99.90;;;;;;5074167;28;20907;-68
2023/11/18 02:24:50;;;;;;;51.03;18.17;;;5.20;99.90;;;;;;5073665;28;20473;-68
2023/11/18 02:27:16;;;;;;;39.50;14.53;;;5.30;99.90;;;;;;5074120;28;20899;-68
2023/11/18 02:29:45;;;;;;;52.93;17.27;;;5.30;99.90;;;;;;5073915;28;20437;-68
2023/11/18 02:32:22;;;;;;;45.10;18.93;;;5.30;99.90;;;;;;5074135;28;20415;-68
2023/11/18 02:35:02;;;;;;;41.87;16.60;;;5.30;99.90;;;;;;5073894;28;20890;-68
2023/11/18 02:37:32;;;;;;;46.10;17.93;;;5.30;99.90;;;;;;5073697;28;20399;-68
2023/11/18 02:40:08;;;;;;;53.60;19.57;;;5.30;99.90;;;;;;5073791;28;20503;-68
2023/11/18 02:42:36;;;;;;;36.87;15.63;;;5.30;99.90;;;;;;5074003;28;20385;-68
2023/11/18 02:45:02;;;;;;;57.33;19.00;;;5.40;99.90;;;;;;5073663;28;20405;-68
2023/11/18 02:47:27;;;;;;;37.40;17.10;;;5.40;99.90;;;;;;5073596;28;20413;-69
2023/11/18 02:49:56;;;;;;;40.20;18.10;;;5.30;99.90;;;;;;5073668;28;20431;-68
2023/11/18 02:52:22;;;;;;;41.23;15.50;;;5.40;99.90;;;;;;5073522;28;20669;-68
2023/11/18 02:54:48;;;;;;;41.80;16.83;;;5.40;99.90;;;;;;5073553;28;20428;-68
2023/11/18 02:57:13;;;;;;;46.60;16.87;;;5.40;99.90;;;;;;5073555;28;20408;-68
2023/11/18 02:59:39;;;;;;;46.17;17.80;;;5.40;99.90;;;;;;5073339;28;20182;-68
2023/11/18 03:02:06;;;;;;;37.03;15.37;;;5.30;99.90;;;;;;5073548;28;20158;-69
2023/11/18 03:04:31;;;;;;;37.50;19.57;;;5.40;99.90;;;;;;5073230;28;20253;-68
2023/11/18 03:06:57;;;;;;;31.13;14.90;;;5.50;99.90;;;;;;5073438;28;20931;-68
2023/11/18 03:09:27;;;;;;;39.23;15.57;;;5.50;99.90;;;;;;5073169;28;20201;-68
2023/11/18 03:11:53;;;;;;;40.13;16.60;;;5.50;99.90;;;;;;5073415;28;20182;-68
2023/11/18 03:14:19;;;;;;;37.20;16.97;;;5.50;99.90;;;;;;5073053;28;20428;-68
2023/11/18 03:16:44;;;;;;;31.73;16.17;;;5.60;99.90;;;;;;5073223;28;20173;-68
2023/11/18 03:19:10;;;;;;;42.80;18.07;;;5.60;99.90;;;;;;5073040;28;20923;-68
2023/11/18 03:21:36;;;;;;;45.47;15.63;;;5.60;99.90;;;;;;5072959;28;20572;-68
2023/11/18 03:24:02;;;;;;;45.43;18.37;;;5.60;99.90;;;;;;5072970;28;20518;-68
2023/11/18 03:26:28;;;;;;;41.33;18.07;;;5.50;99.90;;;;;;5072810;28;20416;-68
2023/11/18 03:28:53;;;;;;;38.83;15.57;;;5.50;99.90;;;;;;5072818;28;20202;-68
2023/11/18 03:31:19;;;;;;;39.47;16.57;;;5.50;99.90;;;;;;5054902;28;20177;-68
2023/11/18 03:33:45;;;;;;;36.40;15.80;;;5.50;99.90;;;;;;5072873;28;20208;-68
2023/11/18 03:36:12;;;;;;;57.07;18.73;;;5.50;99.90;;;;;;5072125;28;20409;-68
2023/11/18 03:38:37;;;;;;;39.20;15.67;;;5.30;99.90;;;;;;5072668;28;20182;-68
2023/11/18 03:41:03;;;;;;;42.27;17.90;;;5.30;99.90;;;;;;5072572;28;20494;-68
2023/11/18 03:43:29;;;;;;;37.57;15.50;;;5.30;99.90;;;;;;5072584;28;20182;-68
2023/11/18 03:45:56;;;;;;;46.83;17.40;;;5.50;99.90;;;;;;5072316;28;20181;-68
2023/11/18 03:48:22;;;;;;;40.83;17.30;;;5.50;99.90;;;;;;5072371;28;20273;-68
2023/11/18 03:50:48;;;;;;;36.23;15.73;;;5.50;99.90;;;;;;5072572;28;20423;-68
2023/11/18 03:53:13;;;;;;;40.60;17.53;;;5.50;99.90;;;;;;5072251;28;20416;-68
2023/11/18 03:55:39;;;;;;;31.77;15.77;;;5.50;99.90;;;;;;5072149;28;20162;-68
2023/11/18 03:58:04;;;;;;;32.47;15.83;;;5.50;99.90;;;;;;5072325;28;20174;-68
2023/11/18 04:00:31;;;;;;;29.67;15.20;;;5.50;99.90;;;;;;5054198;28;20229;-68
2023/11/18 04:02:56;;;;;;;29.90;14.13;;;5.60;99.90;;;;;;5072233;28;20169;-68
2023/11/18 04:05:22;;;;;;;34.17;16.53;;;5.60;99.90;;;;;;5072073;28;20408;-68
2023/11/18 04:07:48;;;;;;;35.70;14.13;;;5.60;99.90;;;;;;5072198;28;20233;-68
2023/11/18 04:10:14;;;;;;;40.63;15.53;;;5.60;99.90;;;;;;5072157;28;20235;-68
2023/11/18 04:12:40;;;;;;;35.80;15.27;;;5.50;99.90;;;;;;5072152;28;20166;-68
2023/11/18 04:15:07;;;;;;;28.17;15.53;;;5.50;99.90;;;;;;5071993;28;20404;-69
2023/11/18 04:17:33;;;;;;;40.80;15.37;;;5.40;99.90;;;;;;5054219;28;20656;-68
2023/11/18 04:19:58;;;;;;;34.50;14.70;;;5.30;99.90;;;;;;5071932;28;20426;-68
2023/11/18 04:22:24;;;;;;;34.20;16.07;;;5.30;99.90;;;;;;5071846;28;20171;-68
2023/11/18 04:24:49;;;;;;;37.40;16.17;;;5.20;99.90;;;;;;5071792;28;20178;-68
2023/11/18 04:27:15;;;;;;;32.43;15.20;;;5.10;99.90;;;;;;5071884;28;20174;-68
2023/11/18 04:29:41;;;;;;;31.10;13.37;;;5.20;99.90;;;;;;5071917;28;20192;-68
2023/11/18 04:32:08;;;;;;;28.80;13.83;;;5.10;99.90;;;;;;5071933;28;20401;-68
2023/11/18 04:34:36;;;;;;;30.17;14.17;;;5.10;99.90;;;;;;5071512;28;20170;-68
2023/11/18 04:37:03;;;;;;;34.57;16.90;;;5.10;99.90;;;;;;5071892;28;20401;-68
2023/11/18 04:39:31;;;;;;;38.33;15.13;;;5.10;99.90;;;;;;5053729;28;20436;-68
2023/11/18 04:41:57;;;;;;;32.90;15.83;;;5.10;99.90;;;;;;5071665;28;20485;-68
2023/11/18 04:44:22;;;;;;;24.13;13.63;;;5.00;99.90;;;;;;5071636;28;20495;-69
2023/11/18 04:46:48;;;;;;;42.83;16.70;;;5.00;99.90;;;;;;5053640;28;20166;-68
2023/11/18 04:49:14;;;;;;;33.90;14.30;;;5.00;99.90;;;;;;5071559;28;20224;-68
2023/11/18 04:51:39;;;;;;;34.57;15.90;;;5.00;99.90;;;;;;5071587;28;20214;-68
2023/11/18 04:54:07;;;;;;;35.20;13.50;;;5.10;99.90;;;;;;5053536;28;20428;-68
2023/11/18 04:56:35;;;;;;;33.50;14.83;;;5.10;99.90;;;;;;5071433;28;20253;-68
2023/11/18 04:59:01;;;;;;;32.03;13.23;;;5.10;99.90;;;;;;5071658;28;20420;-68
2023/11/18 05:01:27;;;;;;;29.60;14.50;;;5.10;99.90;;;;;;5071573;28;20903;-68
2023/11/18 05:03:52;;;;;;;35.80;15.13;;;5.10;99.90;;;;;;5071532;28;20412;-68
2023/11/18 05:06:19;;;;;;;30.17;14.50;;;5.10;99.90;;;;;;5071455;28;20170;-68
2023/11/18 05:08:45;;;;;;;24.70;13.50;;;5.10;99.90;;;;;;5071445;28;20202;-68
2023/11/18 05:11:12;;;;;;;34.90;13.93;;;5.10;99.90;;;;;;5071467;28;20979;-69
2023/11/18 05:13:40;;;;;;;36.10;15.03;;;5.10;99.90;;;;;;5071476;28;20193;-68
2023/11/18 05:16:06;;;;;;;35.33;14.70;;;5.10;99.90;;;;;;5071364;28;20397;-68
2023/11/18 05:18:35;;;;;;;31.00;15.03;;;5.20;99.90;;;;;;5071340;28;20969;-68
2023/11/18 05:21:02;;;;;;;32.33;15.00;;;5.20;99.90;;;;;;5071311;28;20404;-68
2023/11/18 05:23:31;;;;;;;27.63;13.30;;;5.20;99.90;;;;;;5071507;28;20411;-68
2023/11/18 05:25:58;;;;;;;27.33;14.30;;;5.10;99.90;;;;;;5071323;28;20746;-68
2023/11/18 05:28:24;;;;;;;36.73;14.87;;;5.10;99.90;;;;;;5071151;28;20885;-68
2023/11/18 05:30:50;;;;;;;39.37;15.30;;;5.00;99.90;;;;;;5071259;28;20404;-68
2023/11/18 05:33:17;;;;;;;28.50;14.33;;;5.10;99.90;;;;;;5053391;28;20420;-69
2023/11/18 05:35:48;;;;;;;31.83;15.03;;;5.20;99.90;;;;;;5071153;28;20441;-68
2023/11/18 05:38:18;;;;;;;25.30;11.73;;;5.20;99.90;;;;;;5071264;28;20404;-69
2023/11/18 05:40:54;;;;;;;28.27;14.13;;;5.20;99.90;;;;;;5071150;28;20465;-68
2023/11/18 05:43:21;;;;;;;27.83;13.53;;;5.20;99.90;;;;;;5071284;28;20404;-69
2023/11/18 05:46:14;;;;;;;31.87;14.87;;;5.20;99.90;;;;;;5071018;28;20491;-68
2023/11/18 05:48:32;;;;;;;33.07;13.43;;;5.30;99.90;;;;;;5070919;28;20463;-68
2023/11/18 05:50:57;;;;;;;23.53;13.93;;;5.30;99.90;;;;;;5071113;28;20892;-69
2023/11/18 05:53:23;;;;;;;31.87;13.30;;;5.30;99.90;;;;;;5071070;28;20186;-69
2023/11/18 05:55:49;;;;;;;28.00;12.97;;;5.30;99.90;;;;;;5070984;28;20162;-69
2023/11/18 05:58:15;;;;;;;32.10;14.37;;;5.30;99.90;;;;;;5072131;28;20162;-69
2023/11/18 06:00:40;;;;;;;27.53;13.83;;;5.30;99.90;;;;;;5074698;28;20450;-69
2023/11/18 06:03:06;;;;;;;34.47;14.07;;;5.30;99.90;;;;;;5074535;28;20166;-68
2023/11/18 06:05:34;;;;;;;32.33;14.47;;;5.30;99.90;;;;;;5074571;28;20173;-68
2023/11/18 06:08:00;;;;;;;28.50;14.43;;;5.30;99.90;;;;;;5074488;28;20189;-68
2023/11/18 06:10:26;;;;;;;32.43;14.20;;;5.30;99.90;;;;;;5074456;28;20507;-68
2023/11/18 06:12:53;;;;;;;28.60;13.87;;;5.40;99.90;;;;;;5074409;28;20396;-68
2023/11/18 06:15:18;;;;;;;23.97;13.10;;;5.40;99.90;;;;;;5074368;28;20165;-69
2023/11/18 06:17:44;;;;;;;25.60;11.57;;;5.40;99.90;;;;;;5074425;28;20409;-68
2023/11/18 06:20:10;;;;;;;28.43;13.97;;;5.40;99.90;;;;;;5074254;28;20217;-68
2023/11/18 06:22:36;;;;;;;27.13;14.47;;;5.40;99.90;;;;;;5074299;28;20249;-68
2023/11/18 06:25:02;;;;;;;30.70;13.57;;;5.40;99.90;;;;;;5074123;28;20447;-68
2023/11/18 06:27:28;;;;;;;28.23;13.37;;;5.40;99.90;;;;;;5074160;28;20216;-69
2023/11/18 06:29:54;;;;;;;30.10;13.43;;;5.50;99.90;;;;;;5074088;28;20455;-68
2023/11/18 06:32:20;;;;;;;28.00;13.27;;;5.40;99.90;;;;;;5074106;28;20529;-68
2023/11/18 06:34:45;;;;;;;28.93;13.70;;;5.40;99.90;;;;;;5073985;28;20401;-68
2023/11/18 06:37:11;;;;;;;29.57;13.43;;;5.30;99.90;;;;;;5074004;28;20411;-68
2023/11/18 06:39:44;;;;;;;30.10;13.60;;;5.40;99.90;;;;;;5073938;28;20553;-68
2023/11/18 06:42:11;;;;;;;26.30;11.93;;;5.50;99.90;;;;;;5074039;28;20185;-68
2023/11/18 06:44:37;;;;;;;21.63;12.93;;;5.50;99.90;;;;;;5073761;28;20409;-68
2023/11/18 06:47:05;;;;;;;28.00;11.97;;;5.50;99.90;;;;;;5073898;28;20442;-68
2023/11/18 06:49:34;;;;;;;26.40;14.50;;;5.50;99.90;;;;;;5073591;28;20460;-68
2023/11/18 06:52:02;;;;;;;29.27;13.93;;;5.50;99.90;;;;;;5073723;28;20775;-68
2023/11/18 06:54:28;;;;;;;22.40;13.00;;;5.50;99.90;;;;;;5073969;28;20876;-69
2023/11/18 06:56:54;;;;;;;26.97;11.93;;;5.50;99.90;;;;;;5073673;28;20404;-68
2023/11/18 06:59:19;;;;;;;21.07;12.00;;;5.50;99.90;;;;;;5073455;28;20186;-69
2023/11/18 07:01:45;;;;;;;19.00;9.43;;;5.50;99.90;;;;;;5073534;28;20185;-68
2023/11/18 07:04:11;;;;;;;28.73;13.30;;;5.60;99.90;;;;;;5073470;28;20245;-68
2023/11/18 07:06:41;;;;;;;24.43;12.40;;;5.60;99.90;;;;;;5073383;28;20171;-69
2023/11/18 07:09:17;;;;;;;23.90;12.03;;;5.60;99.90;;;;;;5072754;28;20190;-68
2023/11/18 07:11:43;;;;;;;20.70;11.73;;;5.60;99.90;;;;;;5072808;28;20464;-68
2023/11/18 07:14:10;;;;;;;22.40;11.97;;;5.60;99.90;;;;;;5073007;28;20401;-69
2023/11/18 07:16:39;;;;;;;25.77;14.13;;;5.70;99.90;;;;;;5073269;28;20483;-68
2023/11/18 07:19:04;;;;;;;17.60;11.13;;;5.70;99.90;;;;;;5073104;28;20424;-68
2023/11/18 07:21:30;;;;;;;23.73;12.87;;;5.70;99.90;;;;;;5073143;28;20404;-68
2023/11/18 07:23:56;;;;;;;20.33;12.10;;;5.70;99.90;;;;;;5072982;28;20641;-68
2023/11/18 07:26:23;;;;;;;20.13;11.20;;;5.70;99.90;;;;;;5072868;28;20249;-68
2023/11/18 07:28:49;;;;;;;17.23;10.40;;;5.70;99.90;;;;;;5072644;28;21025;-69
2023/11/18 07:31:18;;;;;;;21.13;10.53;;;5.70;99.90;;;;;;5072892;28;20400;-68
2023/11/18 07:33:48;;;;;;;17.20;10.67;;;5.80;99.90;;;;;;5072766;28;20174;-68
2023/11/18 07:36:15;;;;;;;18.53;11.27;;;5.70;99.90;;;;;;5072680;28;20400;-68
2023/11/18 07:38:41;;;;;;;23.70;10.33;;;5.80;99.90;;;;;;5072665;28;20455;-68
2023/11/18 07:41:08;;;;;;;25.13;11.27;;;5.80;99.90;;;;;;5072776;28;20498;-68
2023/11/18 07:43:37;;;;;;;15.63;11.07;;;5.80;99.90;;;;;;5072409;28;20565;-68
2023/11/18 07:46:03;;;;;;;26.43;10.90;;;5.80;99.90;;;;;;5072406;28;20406;-69
2023/11/18 07:48:31;;;;;;;22.13;12.10;;;5.80;99.90;;;;;;5072472;28;20448;-69
2023/11/18 07:50:57;;;;;;;15.57;9.90;;;5.90;99.90;;;;;;5054512;28;20954;-69
2023/11/18 07:53:22;;;;;;;17.67;10.97;;;5.90;99.90;;;;;;5072304;28;20420;-69
2023/11/18 07:55:49;;;;;;;17.20;9.83;;;6.00;99.90;;;;;;5072229;28;20415;-68
2023/11/18 07:58:15;;;;;;;19.23;12.20;;;6.00;99.90;;;;;;5072401;28;20170;-68
2023/11/18 08:00:47;;;;;;;16.03;10.80;;;6.10;99.90;;;;;;5054467;28;20424;-68
2023/11/18 08:03:13;;;;;;;17.57;11.33;;;6.20;99.90;;;;;;5054515;28;20180;-68
2023/11/18 08:05:39;;;;;;;27.63;11.27;;;6.20;99.90;;;;;;5071230;28;20783;-68
2023/11/18 08:08:10;;;;;;;20.53;10.87;;;6.10;99.90;;;;;;5072210;28;20186;-69
2023/11/18 08:10:39;;;;;;;21.97;10.90;;;6.20;99.90;;;;;;5054573;28;20440;-68
2023/11/18 08:13:09;;;;;;;16.43;10.30;;;6.30;99.90;;;;;;5072365;28;20495;-68
2023/11/18 08:15:37;;;;;;;16.57;9.70;;;6.40;99.90;;;;;;5080420;28;20449;-68
2023/11/18 08:18:03;;;;;;;18.93;11.00;;;6.40;99.90;;;;;;5092605;28;20797;-69
2023/11/18 08:20:29;;;;;;;18.60;11.57;;;6.50;99.90;;;;;;5066723;28;20502;-68
2023/11/18 08:22:55;;;;;;;17.30;9.60;;;6.50;99.90;;;;;;5072065;28;20448;-69
2023/11/18 08:25:21;;;;;;;16.43;9.97;;;6.50;99.90;;;;;;5059692;28;20252;-68
2023/11/18 08:27:47;;;;;;;18.80;10.57;;;6.50;99.90;;;;;;5092231;28;20185;-69
2023/11/18 08:30:14;;;;;;;16.00;10.10;;;6.60;99.90;;;;;;5091957;28;20518;-68
2023/11/18 08:32:43;;;;;;;16.47;10.03;;;6.70;99.90;;;;;;5092263;28;20399;-69
2023/11/18 08:35:09;;;;;;;15.77;9.60;;;6.70;99.90;;;;;;5082142;28;20408;-68
2023/11/18 08:37:37;;;;;;;22.70;12.00;;;6.70;99.90;;;;;;5071891;28;20416;-68
2023/11/18 08:40:03;;;;;;;21.43;11.07;;;6.80;99.90;;;;;;5071883;28;20424;-68
2023/11/18 08:42:31;;;;;;;18.93;10.87;;;6.80;99.90;;;;;;5071898;28;20485;-68
2023/11/18 08:44:58;;;;;;;15.60;10.57;;;6.90;99.90;;;;;;5071837;28;20408;-68
2023/11/18 08:47:25;;;;;;;15.00;10.30;;;6.90;99.90;;;;;;5071884;28;20401;-68
2023/11/18 08:49:50;;;;;;;18.00;9.93;;;6.90;99.90;;;;;;5053692;28;20481;-68
2023/11/18 08:52:17;;;;;;;16.43;10.30;;;7.00;99.90;;;;;;5071632;28;20424;-69
2023/11/18 08:57:34;;;;;;;18.53;10.37;;;7.10;99.90;;;;;;5051945;28;20392;-68
2023/11/18 08:59:59;;;;;;;18.83;10.40;;;7.10;99.90;;;;;;5052612;28;20496;-68
2023/11/18 09:02:25;;;;;;;16.93;9.97;;;7.10;99.90;;;;;;5071596;28;20537;-68
2023/11/18 09:04:52;;;;;;;18.33;10.00;;;7.20;99.90;;;;;;5071453;28;20237;-68
2023/11/18 09:07:19;;;;;;;15.77;10.40;;;7.20;99.90;;;;;;5091454;28;20170;-68
2023/11/18 09:09:44;;;;;;;21.03;9.27;;;7.20;99.90;;;;;;5091563;28;20447;-68
2023/11/18 09:12:14;;;;;;;13.93;9.87;;;7.30;99.90;;;;;;5091608;28;20487;-68
2023/11/18 09:14:42;;;;;;;16.20;9.50;;;7.30;99.90;;;;;;5085446;28;20434;-69
2023/11/18 09:17:08;;;;;;;16.40;10.07;;;7.20;99.90;;;;;;5071624;28;20412;-69
2023/11/18 09:19:33;;;;;;;16.50;10.07;;;7.30;99.90;;;;;;5071345;28;20865;-68
2023/11/18 09:21:59;;;;;;;14.23;8.83;;;7.30;99.90;;;;;;5087765;28;20227;-68
2023/11/18 09:24:24;;;;;;;14.97;9.93;;;7.30;99.90;;;;;;5091257;28;20157;-67
2023/11/18 09:26:50;;;;;;;14.87;8.80;;;7.30;99.90;;;;;;5076637;28;20261;-68
2023/11/18 09:29:23;;;;;;;13.00;7.93;;;7.30;99.90;;;;;;5071141;28;20767;-68
2023/11/18 09:31:49;;;;;;;18.23;10.50;;;7.40;99.90;;;;;;5071323;28;20158;-69
2023/11/18 09:34:16;;;;;;;14.70;9.20;;;7.40;99.90;;;;;;5073516;28;20404;-68
2023/11/18 09:36:43;;;;;;;13.07;8.73;;;7.40;99.90;;;;;;5057098;28;20178;-68
2023/11/18 09:39:15;;;;;;;12.37;8.67;;;7.50;99.90;;;;;;5074928;28;20422;-68
2023/11/18 09:41:41;;;;;;;11.73;8.47;;;7.50;99.90;;;;;;5057039;28;20416;-68
2023/11/18 09:44:06;;;;;;;13.40;9.43;;;7.70;99.90;;;;;;5074883;28;20776;-69
2023/11/18 09:46:40;;;;;;;14.73;7.70;;;7.70;99.90;;;;;;5074848;28;20540;-68
2023/11/18 09:49:17;;;;;;;13.70;7.87;;;7.80;99.90;;;;;;5074749;28;20201;-68
2023/11/18 09:51:47;;;;;;;19.80;10.37;;;7.80;99.90;;;;;;5074929;28;20434;-68
2023/11/18 09:54:24;;;;;;;14.13;8.77;;;7.80;99.90;;;;;;5074039;28;20436;-68
2023/11/18 09:57:14;;;;;;;12.50;7.50;;;7.90;99.90;;;;;;5074798;28;20396;-68
2023/11/18 09:59:59;;;;;;;15.03;8.57;;;7.90;99.90;;;;;;5074482;28;20893;-69
2023/11/18 10:02:25;;;;;;;11.20;8.10;;;7.90;99.90;;;;;;5074682;28;20405;-68
2023/11/18 10:04:57;;;;;;;18.73;8.53;;;8.00;99.90;;;;;;5055833;28;20794;-69
2023/11/18 10:07:27;;;;;;;10.60;8.07;;;8.00;99.90;;;;;;5073584;28;20439;-69
2023/11/18 10:09:58;;;;;;;11.37;7.00;;;8.10;99.90;;;;;;5056322;28;20475;-68
2023/11/18 10:12:26;;;;;;;13.10;8.17;;;8.00;99.90;;;;;;5054312;28;20401;-69
2023/11/18 10:14:52;;;;;;;14.20;9.40;;;8.00;99.90;;;;;;5067819;28;20407;-68
2023/11/18 10:17:21;;;;;;;12.20;8.13;;;8.10;99.90;;;;;;5074381;28;20393;-68
2023/11/18 10:19:55;;;;;;;12.40;8.80;;;8.10;99.90;;;;;;5073970;28;20221;-68
2023/11/18 10:22:28;;;;;;;19.03;8.40;;;8.20;99.90;;;;;;5074240;28;20479;-68
2023/11/18 10:24:55;;;;;;;11.07;6.53;;;8.10;99.90;;;;;;5074104;28;20766;-68
2023/11/18 10:27:23;;;;;;;12.17;7.60;;;8.20;99.90;;;;;;5074196;28;20768;-68
2023/11/18 10:29:50;;;;;;;14.90;8.83;;;8.20;99.90;;;;;;5056050;28;20453;-68
2023/11/18 10:32:21;;;;;;;13.17;7.67;;;8.20;99.90;;;;;;5073865;28;20454;-68
2023/11/18 10:34:49;;;;;;;11.30;7.30;;;8.20;99.90;;;;;;5073776;28;20396;-68
2023/11/18 10:37:16;;;;;;;10.77;7.93;;;8.30;99.90;;;;;;5056025;28;20412;-68
2023/11/18 10:39:47;;;;;;;12.83;8.17;;;8.30;99.90;;;;;;5073870;28;20506;-68
2023/11/18 10:42:13;;;;;;;15.63;8.43;;;8.30;99.90;;;;;;5073893;28;20420;-68
2023/11/18 10:44:55;;;;;;;12.20;7.10;;;8.40;99.90;;;;;;5055494;28;20812;-68
2023/11/18 10:47:21;;;;;;;7.67;6.50;;;8.50;99.90;;;;;;5055980;28;20171;-68
2023/11/18 10:49:51;;;;;;;10.80;7.93;;;8.50;99.90;;;;;;5073444;28;20455;-68
2023/11/18 10:52:17;;;;;;;10.07;7.40;;;8.60;99.90;;;;;;5073600;28;20731;-68
2023/11/18 10:54:54;;;;;;;11.13;6.93;;;8.50;99.90;;;;;;5073542;28;20443;-68
2023/11/18 10:57:20;;;;;;;12.73;8.37;;;8.60;99.90;;;;;;5073694;28;20419;-68
2023/11/18 11:00:03;;;;;;;12.20;8.10;;;8.60;99.90;;;;;;5073407;28;20455;-68
2023/11/18 11:02:39;;;;;;;10.27;7.30;;;8.60;99.90;;;;;;5073323;28;20397;-68
2023/11/18 11:05:06;;;;;;;8.93;5.93;;;8.60;99.90;;;;;;5073282;28;20377;-68
2023/11/18 11:07:32;;;;;;;11.37;7.10;;;8.50;99.90;;;;;;5073409;28;20866;-68
2023/11/18 11:10:04;;;;;;;10.13;6.40;;;8.40;99.90;;;;;;5073274;28;20448;-68
2023/11/18 11:12:41;;;;;;;14.77;7.20;;;8.50;99.90;;;;;;5073436;28;20387;-68
2023/11/18 11:15:21;;;;;;;13.30;7.50;;;8.50;99.90;;;;;;5073151;28;20392;-68
2023/11/18 11:17:52;;;;;;;11.87;7.03;;;8.50;99.90;;;;;;5073226;28;20491;-68
2023/11/18 11:20:27;;;;;;;10.03;6.80;;;8.60;99.90;;;;;;5073021;28;20424;-68
2023/11/18 11:22:52;;;;;;;8.07;6.43;;;8.70;99.90;;;;;;5073205;28;20392;-68
2023/11/18 11:26:08;;;;;;;11.97;6.97;;;8.80;99.90;;;;;;5072696;28;20401;-69
2023/11/18 11:28:40;;;;;;;7.87;6.27;;;9.00;99.90;;;;;;5051163;28;20468;-68
2023/11/18 11:31:20;;;;;;;8.20;6.43;;;9.10;99.90;;;;;;5072899;28;20408;-68
2023/11/18 11:33:59;;;;;;;7.37;4.27;;;9.20;99.90;;;;;;5072864;28;20956;-68
2023/11/18 11:36:33;;;;;;;7.23;4.57;;;9.30;99.90;;;;;;5072701;28;20389;-68
2023/11/18 11:39:00;;;;;;;15.23;4.50;;;9.40;99.90;;;;;;5072801;28;20443;-69
2023/11/18 11:41:28;;;;;;;7.93;4.67;;;9.30;99.90;;;;;;5072664;28;20405;-69
2023/11/18 11:43:57;;;;;;;4.80;4.30;;;9.40;99.90;;;;;;5072733;28;20842;-68
2023/11/18 11:46:24;;;;;;;6.40;5.07;;;9.50;99.90;;;;;;5072546;28;20427;-68
2023/11/18 11:48:53;;;;;;;7.47;4.33;;;9.40;99.90;;;;;;5072453;28;20459;-68
2023/11/18 11:51:21;;;;;;;6.80;4.50;;;9.40;99.90;;;;;;5072523;28;20501;-69
2023/11/18 11:54:01;;;;;;;7.00;3.97;;;9.40;99.90;;;;;;5072420;28;20984;-68
2023/11/18 11:56:59;;;;;;;4.93;3.80;;;9.50;99.90;;;;;;5071911;28;20454;-68
2023/11/18 11:59:44;;;;;;;7.30;4.70;;;9.50;99.90;;;;;;5072343;28;20558;-69
2023/11/18 12:02:15;;;;;;;6.30;4.70;;;9.50;99.90;;;;;;5072398;28;20412;-68
2023/11/18 12:04:44;;;;;;;5.80;4.67;;;9.60;99.90;;;;;;5072308;28;20415;-68
2023/11/18 12:07:10;;;;;;;6.33;4.30;;;9.60;99.90;;;;;;5072410;28;20441;-68
2023/11/18 12:09:40;;;;;;;7.20;4.60;;;9.60;99.90;;;;;;5072047;28;20545;-68
2023/11/18 12:12:16;;;;;;;7.90;4.23;;;9.70;99.90;;;;;;5072055;28;20303;-68
2023/11/18 12:15:10;;;;;;;5.23;3.47;;;9.70;99.90;;;;;;5072075;28;20400;-68
2023/11/18 12:17:55;;;;;;;3.80;2.27;;;9.70;99.90;;;;;;5072212;28;20413;-68
2023/11/18 12:20:42;;;;;;;2.33;1.87;;;9.70;99.90;;;;;;5071939;28;20420;-68
2023/11/18 12:23:14;;;;;;;2.80;1.77;;;9.60;99.90;;;;;;5071852;28;20768;-68
2023/11/18 12:25:45;;;;;;;3.37;2.10;;;9.60;99.90;;;;;;5072159;28;20930;-68
2023/11/18 12:28:15;;;;;;;8.23;2.70;;;9.70;99.90;;;;;;5072043;28;20436;-68
2023/11/18 12:30:51;;;;;;;2.60;2.40;;;9.60;99.90;;;;;;5072019;28;20419;-68
2023/11/18 12:33:18;;;;;;;3.73;2.13;;;9.70;99.90;;;;;;5071977;28;20463;-68
2023/11/18 12:35:50;;;;;;;2.37;1.70;;;9.70;99.90;;;;;;5068425;28;20417;-68
2023/11/18 12:38:57;;;;;;;1.50;1.37;;;9.60;99.90;;;;;;5064512;28;20880;-68
2023/11/18 12:41:40;;;;;;;2.03;1.47;;;9.70;99.90;;;;;;5071109;28;20450;-68
2023/11/18 12:44:18;;;;;;;1.67;1.47;;;9.70;99.90;;;;;;5053908;28;20407;-68
2023/11/18 12:47:18;;;;;;;2.00;1.73;;;9.60;99.90;;;;;;5071839;28;20461;-68
2023/11/18 12:49:44;;;;;;;4.40;2.90;;;9.60;99.90;;;;;;5071581;28;20444;-68